sensor_id;sensor_type;location;lat;lon;timestamp;pressure;altitude;pressure_sealevel;temperature;humidity
52319;BME280;38258;51.148;14.068;2023-09-07T00:00:58;99035.47;;;11.92;100.00
52319;BME280;38258;51.148;14.068;2023-09-07T00:03:25;99033.84;;;11.86;100.00
52319;BME280;38258;51.148;14.068;2023-09-07T00:05:51;99032.97;;;11.87;100.00
52319;BME280;38258;51.148;14.068;2023-09-07T00:08:20;99037.56;;;11.78;100.00
52319;BME280;38258;51.148;14.068;2023-09-07T00:10:46;99028.06;;;11.72;100.00
52319;BME280;38258;51.148;14.068;2023-09-07T00:13:18;99027.97;;;11.77;100.00
52319;BME280;38258;51.148;14.068;2023-09-07T00:15:48;99025.56;;;11.66;100.00
52319;BME280;38258;51.148;14.068;2023-09-07T00:18:14;99043.69;;;11.77;100.00
52319;BME280;38258;51.148;14.068;2023-09-07T00:20:41;99050.06;;;11.65;100.00
52319;BME280;38258;51.148;14.068;2023-09-07T00:23:08;99045.03;;;11.55;100.00
52319;BME280;38258;51.148;14.068;2023-09-07T00:25:36;99044.34;;;11.45;100.00
52319;BME280;38258;51.148;14.068;2023-09-07T00:28:03;99050.38;;;11.49;100.00
52319;BME280;38258;51.148;14.068;2023-09-07T00:30:30;99051.53;;;11.36;100.00
52319;BME280;38258;51.148;14.068;2023-09-07T00:33:01;99067.16;;;11.42;100.00
52319;BME280;38258;51.148;14.068;2023-09-07T00:35:28;99057.75;;;11.31;100.00
52319;BME280;38258;51.148;14.068;2023-09-07T00:37:55;99054.31;;;11.29;100.00
52319;BME280;38258;51.148;14.068;2023-09-07T00:40:22;99048.41;;;11.18;100.00
52319;BME280;38258;51.148;14.068;2023-09-07T00:42:50;99047.44;;;11.22;100.00
52319;BME280;38258;51.148;14.068;2023-09-07T00:45:17;99031.97;;;11.11;100.00
52319;BME280;38258;51.148;14.068;2023-09-07T00:47:45;99038.91;;;11.14;100.00
52319;BME280;38258;51.148;14.068;2023-09-07T00:50:14;99046.59;;;11.22;100.00
52319;BME280;38258;51.148;14.068;2023-09-07T00:52:43;99035.41;;;11.13;100.00
52319;BME280;38258;51.148;14.068;2023-09-07T00:55:10;99032.00;;;11.10;100.00
52319;BME280;38258;51.148;14.068;2023-09-07T00:57:37;99048.41;;;11.20;100.00
52319;BME280;38258;51.148;14.068;2023-09-07T01:00:07;99039.81;;;11.13;100.00
52319;BME280;38258;51.148;14.068;2023-09-07T01:02:36;99046.69;;;11.17;100.00
52319;BME280;38258;51.148;14.068;2023-09-07T01:05:03;99048.50;;;11.13;100.00
52319;BME280;38258;51.148;14.068;2023-09-07T01:07:35;99047.69;;;11.11;100.00
52319;BME280;38258;51.148;14.068;2023-09-07T01:10:04;99026.06;;;11.00;100.00
52319;BME280;38258;51.148;14.068;2023-09-07T01:12:33;99038.94;;;11.11;100.00
52319;BME280;38258;51.148;14.068;2023-09-07T01:14:59;99038.16;;;11.07;100.00
52319;BME280;38258;51.148;14.068;2023-09-07T01:17:29;99038.13;;;11.09;100.00
52319;BME280;38258;51.148;14.068;2023-09-07T01:19:58;99036.47;;;11.05;100.00
52319;BME280;38258;51.148;14.068;2023-09-07T01:22:36;99042.53;;;11.07;100.00
52319;BME280;38258;51.148;14.068;2023-09-07T01:25:06;99034.00;;;10.95;100.00
52319;BME280;38258;51.148;14.068;2023-09-07T01:27:34;99036.63;;;10.97;100.00
52319;BME280;38258;51.148;14.068;2023-09-07T01:30:01;99032.22;;;10.97;100.00
52319;BME280;38258;51.148;14.068;2023-09-07T01:32:29;99025.41;;;10.90;100.00
52319;BME280;38258;51.148;14.068;2023-09-07T01:34:57;99013.44;;;10.78;100.00
52319;BME280;38258;51.148;14.068;2023-09-07T01:37:24;99030.84;;;10.79;100.00
52319;BME280;38258;51.148;14.068;2023-09-07T01:39:52;99031.75;;;10.78;100.00
52319;BME280;38258;51.148;14.068;2023-09-07T01:42:21;99019.72;;;10.66;100.00
52319;BME280;38258;51.148;14.068;2023-09-07T01:44:48;99024.97;;;10.66;100.00
52319;BME280;38258;51.148;14.068;2023-09-07T01:47:14;99024.94;;;10.68;100.00
52319;BME280;38258;51.148;14.068;2023-09-07T01:49:41;99034.44;;;10.73;100.00
52319;BME280;38258;51.148;14.068;2023-09-07T01:52:08;99030.94;;;10.74;100.00
52319;BME280;38258;51.148;14.068;2023-09-07T01:54:35;99023.16;;;10.70;100.00
52319;BME280;38258;51.148;14.068;2023-09-07T01:57:03;99017.84;;;10.76;100.00
52319;BME280;38258;51.148;14.068;2023-09-07T01:59:30;99022.94;;;10.82;100.00
52319;BME280;38258;51.148;14.068;2023-09-07T02:01:57;99030.66;;;10.88;100.00
52319;BME280;38258;51.148;14.068;2023-09-07T02:04:24;99028.94;;;10.87;100.00
52319;BME280;38258;51.148;14.068;2023-09-07T02:06:51;99014.19;;;10.83;100.00
52319;BME280;38258;51.148;14.068;2023-09-07T02:09:17;99030.56;;;10.93;100.00
52319;BME280;38258;51.148;14.068;2023-09-07T02:11:44;99002.06;;;10.79;100.00
52319;BME280;38258;51.148;14.068;2023-09-07T02:14:12;99012.38;;;10.87;100.00
52319;BME280;38258;51.148;14.068;2023-09-07T02:16:39;99020.09;;;10.95;100.00
52319;BME280;38258;51.148;14.068;2023-09-07T02:19:07;99028.69;;;11.01;100.00
52319;BME280;38258;51.148;14.068;2023-09-07T02:21:34;99013.22;;;10.89;100.00
52319;BME280;38258;51.148;14.068;2023-09-07T02:24:02;99019.84;;;11.07;100.00
52319;BME280;38258;51.148;14.068;2023-09-07T02:26:29;99030.22;;;11.12;100.00
52319;BME280;38258;51.148;14.068;2023-09-07T02:28:56;99026.88;;;11.03;100.00
52319;BME280;38258;51.148;14.068;2023-09-07T02:31:24;99025.16;;;11.02;100.00
52319;BME280;38258;51.148;14.068;2023-09-07T02:33:51;99042.44;;;11.11;100.00
52319;BME280;38258;51.148;14.068;2023-09-07T02:36:20;99043.19;;;11.16;100.00
52319;BME280;38258;51.148;14.068;2023-09-07T02:38:49;99024.13;;;11.11;100.00
52319;BME280;38258;51.148;14.068;2023-09-07T02:41:15;99019.84;;;11.06;100.00
52319;BME280;38258;51.148;14.068;2023-09-07T02:43:42;99025.06;;;11.07;100.00
52319;BME280;38258;51.148;14.068;2023-09-07T02:46:09;99019.25;;;10.93;100.00
52319;BME280;38258;51.148;14.068;2023-09-07T02:48:37;99020.19;;;10.88;100.00
52319;BME280;38258;51.148;14.068;2023-09-07T02:51:06;99045.44;;;10.93;100.00
52319;BME280;38258;51.148;14.068;2023-09-07T02:53:33;99024.81;;;10.74;100.00
52319;BME280;38258;51.148;14.068;2023-09-07T02:56:00;99034.31;;;10.80;100.00
52319;BME280;38258;51.148;14.068;2023-09-07T02:58:30;99017.13;;;10.66;100.00
52319;BME280;38258;51.148;14.068;2023-09-07T03:00:57;99016.34;;;10.61;100.00
52319;BME280;38258;51.148;14.068;2023-09-07T03:03:24;99032.66;;;10.75;100.00
52319;BME280;38258;51.148;14.068;2023-09-07T03:05:53;99032.72;;;10.72;100.00
52319;BME280;38258;51.148;14.068;2023-09-07T03:08:21;99018.88;;;10.66;100.00
52319;BME280;38258;51.148;14.068;2023-09-07T03:10:50;99024.13;;;10.66;100.00
52319;BME280;38258;51.148;14.068;2023-09-07T03:13:17;99029.38;;;10.64;100.00
52319;BME280;38258;51.148;14.068;2023-09-07T03:15:44;99019.59;;;10.74;100.00
52319;BME280;38258;51.148;14.068;2023-09-07T03:18:15;99017.78;;;10.78;100.00
52319;BME280;38258;51.148;14.068;2023-09-07T03:20:42;99020.41;;;10.78;100.00
52319;BME280;38258;51.148;14.068;2023-09-07T03:23:10;99026.44;;;10.81;100.00
52319;BME280;38258;51.148;14.068;2023-09-07T03:25:39;99025.53;;;10.84;100.00
52319;BME280;38258;51.148;14.068;2023-09-07T03:28:06;99028.09;;;10.85;100.00
52319;BME280;38258;51.148;14.068;2023-09-07T03:30:35;99026.59;;;10.73;100.00
52319;BME280;38258;51.148;14.068;2023-09-07T03:33:05;99021.59;;;10.59;100.00
52319;BME280;38258;51.148;14.068;2023-09-07T03:35:33;99034.78;;;10.55;100.00
52319;BME280;38258;51.148;14.068;2023-09-07T03:38:01;99010.81;;;10.26;100.00
52319;BME280;38258;51.148;14.068;2023-09-07T03:40:29;99018.75;;;10.22;100.00
52319;BME280;38258;51.148;14.068;2023-09-07T03:42:56;99034.28;;;10.29;100.00
52319;BME280;38258;51.148;14.068;2023-09-07T03:45:25;99010.13;;;10.16;100.00
52319;BME280;38258;51.148;14.068;2023-09-07T03:47:52;99024.94;;;10.16;100.00
52319;BME280;38258;51.148;14.068;2023-09-07T03:50:18;99021.66;;;10.03;100.00
52319;BME280;38258;51.148;14.068;2023-09-07T03:52:46;99013.84;;;10.01;100.00
52319;BME280;38258;51.148;14.068;2023-09-07T03:55:14;99049.47;;;10.09;100.00
52319;BME280;38258;51.148;14.068;2023-09-07T03:57:42;99028.66;;;10.01;100.00
52319;BME280;38258;51.148;14.068;2023-09-07T04:00:11;99040.97;;;9.93;100.00
52319;BME280;38258;51.148;14.068;2023-09-07T04:02:44;99022.84;;;9.82;100.00
52319;BME280;38258;51.148;14.068;2023-09-07T04:05:11;99036.69;;;9.88;100.00
52319;BME280;38258;51.148;14.068;2023-09-07T04:07:38;99033.19;;;9.91;100.00
52319;BME280;38258;51.148;14.068;2023-09-07T04:10:07;99035.81;;;9.88;100.00
52319;BME280;38258;51.148;14.068;2023-09-07T04:12:36;99017.75;;;9.72;100.00
52319;BME280;38258;51.148;14.068;2023-09-07T04:15:07;99026.34;;;9.81;100.00
52319;BME280;38258;51.148;14.068;2023-09-07T04:17:36;99025.59;;;9.74;100.00
52319;BME280;38258;51.148;14.068;2023-09-07T04:20:09;99024.63;;;9.80;100.00
52319;BME280;38258;51.148;14.068;2023-09-07T04:22:38;99040.16;;;9.89;100.00
52319;BME280;38258;51.148;14.068;2023-09-07T04:25:06;99035.75;;;9.93;100.00
52319;BME280;38258;51.148;14.068;2023-09-07T04:27:36;99036.19;;;10.19;100.00
52319;BME280;38258;51.148;14.068;2023-09-07T04:30:06;99036.22;;;10.18;100.00
52319;BME280;38258;51.148;14.068;2023-09-07T04:32:33;99049.19;;;10.26;100.00
52319;BME280;38258;51.148;14.068;2023-09-07T04:35:01;99056.16;;;10.24;100.00
52319;BME280;38258;51.148;14.068;2023-09-07T04:37:30;99041.84;;;9.93;100.00
52319;BME280;38258;51.148;14.068;2023-09-07T04:39:56;99058.44;;;9.90;100.00
52319;BME280;38258;51.148;14.068;2023-09-07T04:42:24;99049.81;;;9.85;100.00
52319;BME280;38258;51.148;14.068;2023-09-07T04:44:51;99059.34;;;9.88;100.00
52319;BME280;38258;51.148;14.068;2023-09-07T04:47:19;99062.81;;;9.90;100.00
52319;BME280;38258;51.148;14.068;2023-09-07T04:49:48;99062.09;;;9.79;100.00
52319;BME280;38258;51.148;14.068;2023-09-07T04:52:17;99063.66;;;9.90;100.00
52319;BME280;38258;51.148;14.068;2023-09-07T04:54:44;99065.38;;;9.92;100.00
52319;BME280;38258;51.148;14.068;2023-09-07T04:57:15;99069.66;;;9.96;100.00
52319;BME280;38258;51.148;14.068;2023-09-07T04:59:42;99066.09;;;10.04;100.00
52319;BME280;38258;51.148;14.068;2023-09-07T05:02:10;99064.19;;;10.14;100.00
52319;BME280;38258;51.148;14.068;2023-09-07T05:04:58;99069.19;;;10.28;100.00
52319;BME280;38258;51.148;14.068;2023-09-07T05:07:33;99069.03;;;10.38;100.00
52319;BME280;38258;51.148;14.068;2023-09-07T05:10:05;99060.22;;;10.45;100.00
52319;BME280;38258;51.148;14.068;2023-09-07T05:12:34;99056.69;;;10.49;100.00
52319;BME280;38258;51.148;14.068;2023-09-07T05:15:00;99058.28;;;10.56;100.00
52319;BME280;38258;51.148;14.068;2023-09-07T05:17:28;99070.38;;;10.64;100.00
52319;BME280;38258;51.148;14.068;2023-09-07T05:19:56;99072.81;;;10.73;100.00
52319;BME280;38258;51.148;14.068;2023-09-07T05:22:22;99072.78;;;10.76;100.00
52319;BME280;38258;51.148;14.068;2023-09-07T05:24:51;99074.31;;;10.86;100.00
52319;BME280;38258;51.148;14.068;2023-09-07T05:27:18;99079.38;;;10.96;100.00
52319;BME280;38258;51.148;14.068;2023-09-07T05:29:45;99083.59;;;11.03;100.00
52319;BME280;38258;51.148;14.068;2023-09-07T05:32:12;99072.13;;;11.12;100.00
52319;BME280;38258;51.148;14.068;2023-09-07T05:34:39;99081.34;;;11.30;100.00
52319;BME280;38258;51.148;14.068;2023-09-07T05:37:07;99081.38;;;11.28;100.00
52319;BME280;38258;51.148;14.068;2023-09-07T05:39:35;99080.28;;;11.39;100.00
52319;BME280;38258;51.148;14.068;2023-09-07T05:42:01;99091.38;;;11.52;100.00
52319;BME280;38258;51.148;14.068;2023-09-07T05:44:28;99088.38;;;11.69;100.00
52319;BME280;38258;51.148;14.068;2023-09-07T05:46:55;99083.88;;;11.76;100.00
52319;BME280;38258;51.148;14.068;2023-09-07T05:49:24;99084.22;;;12.01;100.00
52319;BME280;38258;51.148;14.068;2023-09-07T05:51:51;99091.78;;;12.15;100.00
52319;BME280;38258;51.148;14.068;2023-09-07T05:54:19;99084.34;;;12.33;100.00
52319;BME280;38258;51.148;14.068;2023-09-07T05:56:46;99090.81;;;12.55;100.00
52319;BME280;38258;51.148;14.068;2023-09-07T05:59:13;99093.06;;;12.69;100.00
52319;BME280;38258;51.148;14.068;2023-09-07T06:01:44;99089.41;;;13.40;100.00
52319;BME280;38258;51.148;14.068;2023-09-07T06:04:19;99091.56;;;13.89;100.00
52319;BME280;38258;51.148;14.068;2023-09-07T06:06:48;99086.66;;;14.33;100.00
52319;BME280;38258;51.148;14.068;2023-09-07T06:09:15;99092.41;;;14.18;100.00
52319;BME280;38258;51.148;14.068;2023-09-07T06:11:43;99093.63;;;14.61;100.00
52319;BME280;38258;51.148;14.068;2023-09-07T06:14:09;99092.75;;;15.13;100.00
52319;BME280;38258;51.148;14.068;2023-09-07T06:16:37;99096.91;;;15.68;100.00
52319;BME280;38258;51.148;14.068;2023-09-07T06:19:05;99092.13;;;16.24;100.00
52319;BME280;38258;51.148;14.068;2023-09-07T06:21:33;99094.31;;;16.35;100.00
52319;BME280;38258;51.148;14.068;2023-09-07T06:23:59;99097.41;;;16.46;100.00
52319;BME280;38258;51.148;14.068;2023-09-07T06:26:26;99092.47;;;16.80;100.00
52319;BME280;38258;51.148;14.068;2023-09-07T06:28:54;99095.72;;;16.87;100.00
52319;BME280;38258;51.148;14.068;2023-09-07T06:31:21;99105.31;;;16.89;100.00
52319;BME280;38258;51.148;14.068;2023-09-07T06:33:48;99102.53;;;17.13;100.00
52319;BME280;38258;51.148;14.068;2023-09-07T06:36:15;99113.25;;;17.50;100.00
52319;BME280;38258;51.148;14.068;2023-09-07T06:38:42;99106.34;;;17.66;100.00
52319;BME280;38258;51.148;14.068;2023-09-07T06:41:08;99106.59;;;17.41;100.00
52319;BME280;38258;51.148;14.068;2023-09-07T06:43:36;99110.72;;;17.87;100.00
52319;BME280;38258;51.148;14.068;2023-09-07T06:46:06;99112.16;;;18.13;100.00
52319;BME280;38258;51.148;14.068;2023-09-07T06:48:34;99111.72;;;18.22;100.00
52319;BME280;38258;51.148;14.068;2023-09-07T06:51:04;99103.66;;;18.43;100.00
52319;BME280;38258;51.148;14.068;2023-09-07T06:53:32;99108.81;;;18.27;100.00
52319;BME280;38258;51.148;14.068;2023-09-07T06:55:59;99113.19;;;18.65;100.00
52319;BME280;38258;51.148;14.068;2023-09-07T06:58:27;99115.19;;;18.77;100.00
52319;BME280;38258;51.148;14.068;2023-09-07T07:00:56;99111.69;;;18.94;100.00
52319;BME280;38258;51.148;14.068;2023-09-07T07:03:26;99117.00;;;19.12;100.00
52319;BME280;38258;51.148;14.068;2023-09-07T07:05:53;99117.47;;;19.20;100.00
52319;BME280;38258;51.148;14.068;2023-09-07T07:08:20;99127.97;;;19.56;100.00
52319;BME280;38258;51.148;14.068;2023-09-07T07:10:47;99123.13;;;19.64;100.00
52319;BME280;38258;51.148;14.068;2023-09-07T07:13:14;99124.06;;;19.79;100.00
52319;BME280;38258;51.148;14.068;2023-09-07T07:15:41;99124.47;;;19.89;100.00
52319;BME280;38258;51.148;14.068;2023-09-07T07:18:08;99115.56;;;20.22;100.00
52319;BME280;38258;51.148;14.068;2023-09-07T07:20:37;99121.72;;;20.39;100.00
52319;BME280;38258;51.148;14.068;2023-09-07T07:23:04;99120.06;;;20.52;100.00
52319;BME280;38258;51.148;14.068;2023-09-07T07:25:33;99116.69;;;20.81;100.00
52319;BME280;38258;51.148;14.068;2023-09-07T07:28:02;99120.91;;;20.99;100.00
52319;BME280;38258;51.148;14.068;2023-09-07T07:30:31;99119.50;;;21.08;100.00
52319;BME280;38258;51.148;14.068;2023-09-07T07:32:58;99128.81;;;21.44;100.00
52319;BME280;38258;51.148;14.068;2023-09-07T07:35:25;99123.59;;;21.43;100.00
52319;BME280;38258;51.148;14.068;2023-09-07T07:37:53;99129.41;;;21.79;100.00
52319;BME280;38258;51.148;14.068;2023-09-07T07:40:20;99130.28;;;22.21;100.00
52319;BME280;38258;51.148;14.068;2023-09-07T07:42:48;99135.50;;;22.23;97.27
52319;BME280;38258;51.148;14.068;2023-09-07T07:45:15;99132.50;;;22.42;99.71
52319;BME280;38258;51.148;14.068;2023-09-07T07:47:45;99132.09;;;22.76;90.46
52319;BME280;38258;51.148;14.068;2023-09-07T07:50:12;99123.56;;;22.70;94.61
52319;BME280;38258;51.148;14.068;2023-09-07T07:52:39;99135.88;;;22.99;91.44
52319;BME280;38258;51.148;14.068;2023-09-07T07:55:08;99134.56;;;23.32;88.62
52319;BME280;38258;51.148;14.068;2023-09-07T07:57:35;99135.00;;;23.39;88.72
52319;BME280;38258;51.148;14.068;2023-09-07T08:00:02;99129.84;;;23.36;84.31
52319;BME280;38258;51.148;14.068;2023-09-07T08:02:39;99134.63;;;23.43;82.97
52319;BME280;38258;51.148;14.068;2023-09-07T08:05:08;99129.03;;;23.85;82.61
52319;BME280;38258;51.148;14.068;2023-09-07T08:07:37;99122.81;;;24.11;80.75
52319;BME280;38258;51.148;14.068;2023-09-07T08:10:04;99131.56;;;24.37;78.03
52319;BME280;38258;51.148;14.068;2023-09-07T08:12:33;99133.88;;;24.66;73.35
52319;BME280;38258;51.148;14.068;2023-09-07T08:15:00;99125.78;;;25.04;72.06
52319;BME280;38258;51.148;14.068;2023-09-07T08:17:27;99125.69;;;25.39;66.14
52319;BME280;38258;51.148;14.068;2023-09-07T08:19:54;99124.34;;;25.34;64.44
52319;BME280;38258;51.148;14.068;2023-09-07T08:22:24;99125.03;;;25.49;65.48
52319;BME280;38258;51.148;14.068;2023-09-07T08:24:53;99116.59;;;25.42;63.98
52319;BME280;38258;51.148;14.068;2023-09-07T08:27:21;99119.47;;;26.07;66.28
52319;BME280;38258;51.148;14.068;2023-09-07T08:29:53;99121.31;;;26.18;62.11
52319;BME280;38258;51.148;14.068;2023-09-07T08:32:20;99120.19;;;26.21;64.23
52319;BME280;38258;51.148;14.068;2023-09-07T08:34:48;99124.16;;;25.82;58.74
52319;BME280;38258;51.148;14.068;2023-09-07T08:37:14;99116.69;;;26.20;59.02
52319;BME280;38258;51.148;14.068;2023-09-07T08:39:41;99109.53;;;26.75;57.89
52319;BME280;38258;51.148;14.068;2023-09-07T08:42:08;99114.31;;;27.66;58.91
52319;BME280;38258;51.148;14.068;2023-09-07T08:44:37;99120.94;;;27.09;57.36
52319;BME280;38258;51.148;14.068;2023-09-07T08:47:05;99119.31;;;26.32;60.38
52319;BME280;38258;51.148;14.068;2023-09-07T08:49:32;99118.84;;;26.59;59.72
52319;BME280;38258;51.148;14.068;2023-09-07T08:52:01;99118.38;;;27.60;56.91
52319;BME280;38258;51.148;14.068;2023-09-07T08:54:28;99115.81;;;27.28;53.11
52319;BME280;38258;51.148;14.068;2023-09-07T08:56:56;99114.22;;;26.94;53.40
52319;BME280;38258;51.148;14.068;2023-09-07T08:59:23;99115.81;;;26.85;54.67
52319;BME280;38258;51.148;14.068;2023-09-07T09:01:50;99118.25;;;27.31;55.12
52319;BME280;38258;51.148;14.068;2023-09-07T09:04:23;99119.88;;;26.79;57.39
52319;BME280;38258;51.148;14.068;2023-09-07T09:06:50;99125.31;;;26.24;62.16
52319;BME280;38258;51.148;14.068;2023-09-07T09:09:22;99125.28;;;27.84;62.85
52319;BME280;38258;51.148;14.068;2023-09-07T09:11:49;99116.75;;;28.20;58.07
52319;BME280;38258;51.148;14.068;2023-09-07T09:14:16;99122.44;;;26.48;58.63
52319;BME280;38258;51.148;14.068;2023-09-07T09:16:48;99115.09;;;26.83;60.67
52319;BME280;38258;51.148;14.068;2023-09-07T09:19:15;99123.22;;;27.35;62.20
52319;BME280;38258;51.148;14.068;2023-09-07T09:21:45;99129.28;;;27.37;59.44
52319;BME280;38258;51.148;14.068;2023-09-07T09:24:12;99119.41;;;28.10;59.98
52319;BME280;38258;51.148;14.068;2023-09-07T09:26:40;99123.94;;;27.16;59.23
52319;BME280;38258;51.148;14.068;2023-09-07T09:29:09;99115.63;;;29.01;54.58
52319;BME280;38258;51.148;14.068;2023-09-07T09:31:36;99118.06;;;28.65;51.19
52319;BME280;38258;51.148;14.068;2023-09-07T09:34:03;99128.13;;;27.30;53.48
52319;BME280;38258;51.148;14.068;2023-09-07T09:36:33;99127.03;;;26.58;58.09
52319;BME280;38258;51.148;14.068;2023-09-07T09:39:02;99126.41;;;27.29;60.46
52319;BME280;38258;51.148;14.068;2023-09-07T09:41:31;99120.22;;;28.11;56.02
52319;BME280;38258;51.148;14.068;2023-09-07T09:43:59;99119.38;;;27.59;54.99
52319;BME280;38258;51.148;14.068;2023-09-07T09:46:27;99111.94;;;29.02;50.78
52319;BME280;38258;51.148;14.068;2023-09-07T09:48:55;99115.97;;;29.36;51.25
52319;BME280;38258;51.148;14.068;2023-09-07T09:51:24;99111.44;;;29.37;53.05
52319;BME280;38258;51.148;14.068;2023-09-07T09:53:51;99109.00;;;29.33;49.20
52319;BME280;38258;51.148;14.068;2023-09-07T09:56:21;99110.88;;;30.27;48.68
52319;BME280;38258;51.148;14.068;2023-09-07T09:58:48;99113.00;;;27.60;51.97
52319;BME280;38258;51.148;14.068;2023-09-07T10:01:15;99106.28;;;28.27;51.92
52319;BME280;38258;51.148;14.068;2023-09-07T10:03:44;99106.09;;;29.17;48.87
52319;BME280;38258;51.148;14.068;2023-09-07T10:06:18;99101.34;;;29.01;48.91
52319;BME280;38258;51.148;14.068;2023-09-07T10:08:53;99110.06;;;29.23;47.98
52319;BME280;38258;51.148;14.068;2023-09-07T10:11:30;99100.84;;;29.25;48.25
52319;BME280;38258;51.148;14.068;2023-09-07T10:13:57;99110.31;;;30.23;48.45
52319;BME280;38258;51.148;14.068;2023-09-07T10:16:24;99103.63;;;28.66;46.17
52319;BME280;38258;51.148;14.068;2023-09-07T10:18:52;99107.53;;;27.41;49.92
52319;BME280;38258;51.148;14.068;2023-09-07T10:21:23;99106.44;;;28.64;46.63
52319;BME280;38258;51.148;14.068;2023-09-07T10:23:51;99102.47;;;28.39;46.71
52319;BME280;38258;51.148;14.068;2023-09-07T10:26:19;99093.84;;;28.65;46.58
52319;BME280;38258;51.148;14.068;2023-09-07T10:28:58;99097.00;;;28.00;47.72
52319;BME280;38258;51.148;14.068;2023-09-07T10:31:26;99090.16;;;28.66;45.28
52319;BME280;38258;51.148;14.068;2023-09-07T10:33:53;99090.31;;;28.55;44.80
52319;BME280;38258;51.148;14.068;2023-09-07T10:36:21;99087.25;;;28.08;45.71
52319;BME280;38258;51.148;14.068;2023-09-07T10:38:48;99095.09;;;29.00;47.33
52319;BME280;38258;51.148;14.068;2023-09-07T10:41:18;99089.44;;;30.61;42.78
52319;BME280;38258;51.148;14.068;2023-09-07T10:43:51;99091.00;;;28.57;43.32
52319;BME280;38258;51.148;14.068;2023-09-07T10:46:18;99090.19;;;29.43;43.45
52319;BME280;38258;51.148;14.068;2023-09-07T10:48:48;99076.81;;;29.42;46.69
52319;BME280;38258;51.148;14.068;2023-09-07T10:51:15;99083.53;;;30.22;43.40
52319;BME280;38258;51.148;14.068;2023-09-07T10:53:42;99087.28;;;30.47;42.46
52319;BME280;38258;51.148;14.068;2023-09-07T10:56:09;99084.38;;;29.66;43.60
52319;BME280;38258;51.148;14.068;2023-09-07T10:58:37;99081.31;;;29.13;45.27
52319;BME280;38258;51.148;14.068;2023-09-07T11:01:07;99080.50;;;30.07;43.65
52319;BME280;38258;51.148;14.068;2023-09-07T11:03:36;99072.34;;;30.53;41.84
52319;BME280;38258;51.148;14.068;2023-09-07T11:06:05;99074.16;;;31.84;41.14
52319;BME280;38258;51.148;14.068;2023-09-07T11:08:33;99072.63;;;30.13;41.87
52319;BME280;38258;51.148;14.068;2023-09-07T11:11:00;99072.03;;;31.27;42.13
52319;BME280;38258;51.148;14.068;2023-09-07T11:13:28;99072.97;;;29.82;42.72
52319;BME280;38258;51.148;14.068;2023-09-07T11:15:56;99065.56;;;30.93;40.65
52319;BME280;38258;51.148;14.068;2023-09-07T11:18:25;99065.94;;;30.98;42.00
52319;BME280;38258;51.148;14.068;2023-09-07T11:20:53;99067.47;;;31.62;40.42
52319;BME280;38258;51.148;14.068;2023-09-07T11:23:21;99059.44;;;30.83;39.73
52319;BME280;38258;51.148;14.068;2023-09-07T11:25:49;99059.00;;;30.69;42.45
52319;BME280;38258;51.148;14.068;2023-09-07T11:28:17;99066.47;;;28.99;42.80
52319;BME280;38258;51.148;14.068;2023-09-07T11:30:50;99065.38;;;30.32;45.13
52319;BME280;38258;51.148;14.068;2023-09-07T11:33:18;99063.88;;;31.18;42.77
52319;BME280;38258;51.148;14.068;2023-09-07T11:35:47;99065.47;;;30.58;43.59
52319;BME280;38258;51.148;14.068;2023-09-07T11:38:15;99059.19;;;31.02;41.91
52319;BME280;38258;51.148;14.068;2023-09-07T11:40:43;99067.16;;;30.78;42.50
52319;BME280;38258;51.148;14.068;2023-09-07T11:43:10;99068.41;;;30.47;40.39
52319;BME280;38258;51.148;14.068;2023-09-07T11:45:38;99074.56;;;30.21;43.25
52319;BME280;38258;51.148;14.068;2023-09-07T11:48:05;99062.78;;;29.38;44.15
52319;BME280;38258;51.148;14.068;2023-09-07T11:50:33;99066.94;;;29.88;45.70
52319;BME280;38258;51.148;14.068;2023-09-07T11:53:02;99057.44;;;30.67;43.25
52319;BME280;38258;51.148;14.068;2023-09-07T11:55:28;99063.50;;;31.40;43.09
52319;BME280;38258;51.148;14.068;2023-09-07T11:57:55;99064.69;;;31.80;40.06
52319;BME280;38258;51.148;14.068;2023-09-07T12:00:23;99061.94;;;31.37;42.46
52319;BME280;38258;51.148;14.068;2023-09-07T12:02:50;99063.00;;;29.27;42.69
52319;BME280;38258;51.148;14.068;2023-09-07T12:05:16;99068.59;;;29.99;44.56
52319;BME280;38258;51.148;14.068;2023-09-07T12:07:44;99063.25;;;29.61;44.07
52319;BME280;38258;51.148;14.068;2023-09-07T12:10:12;99057.97;;;28.74;45.29
52319;BME280;38258;51.148;14.068;2023-09-07T12:12:40;99054.78;;;29.84;44.00
52319;BME280;38258;51.148;14.068;2023-09-07T12:15:08;99053.69;;;29.77;44.53
52319;BME280;38258;51.148;14.068;2023-09-07T12:17:35;99059.97;;;29.96;44.58
52319;BME280;38258;51.148;14.068;2023-09-07T12:20:03;99045.81;;;30.30;44.77
52319;BME280;38258;51.148;14.068;2023-09-07T12:22:30;99045.09;;;31.17;42.15
52319;BME280;38258;51.148;14.068;2023-09-07T12:24:59;99043.47;;;30.98;42.25
52319;BME280;38258;51.148;14.068;2023-09-07T12:27:27;99044.00;;;29.56;45.80
52319;BME280;38258;51.148;14.068;2023-09-07T12:29:54;99041.06;;;29.49;44.34
52319;BME280;38258;51.148;14.068;2023-09-07T12:32:21;99045.88;;;29.56;44.97
52319;BME280;38258;51.148;14.068;2023-09-07T12:34:47;99037.84;;;30.46;46.27
52319;BME280;38258;51.148;14.068;2023-09-07T12:37:19;99030.63;;;30.29;44.63
52319;BME280;38258;51.148;14.068;2023-09-07T12:39:48;99042.19;;;29.75;45.94
52319;BME280;38258;51.148;14.068;2023-09-07T12:42:15;99032.50;;;30.10;44.27
52319;BME280;38258;51.148;14.068;2023-09-07T12:44:44;99027.28;;;28.47;45.75
52319;BME280;38258;51.148;14.068;2023-09-07T12:47:11;99025.69;;;28.64;47.40
52319;BME280;38258;51.148;14.068;2023-09-07T12:49:38;99021.69;;;30.10;45.57